sensor_id;sensor_type;location;lat;lon;timestamp;pressure;altitude;pressure_sealevel;temperature;humidity
44751;BME280;30477;48.224;11.470;2022-09-29T00:02:21;94664.53;;;8.46;79.04
44751;BME280;30477;48.224;11.470;2022-09-29T00:04:47;94667.25;;;8.45;78.92
44751;BME280;30477;48.224;11.470;2022-09-29T00:07:12;94666.75;;;8.41;78.96
44751;BME280;30477;48.224;11.470;2022-09-29T00:09:37;94665.13;;;8.40;79.03
44751;BME280;30477;48.224;11.470;2022-09-29T00:12:03;94663.25;;;8.50;79.11
44751;BME280;30477;48.224;11.470;2022-09-29T00:14:28;94664.84;;;8.60;79.36
44751;BME280;30477;48.224;11.470;2022-09-29T00:16:54;94662.56;;;8.65;79.31
44751;BME280;30477;48.224;11.470;2022-09-29T00:19:19;94671.59;;;8.69;78.91
44751;BME280;30477;48.224;11.470;2022-09-29T00:21:44;94666.13;;;8.64;78.77
44751;BME280;30477;48.224;11.470;2022-09-29T00:24:10;94660.97;;;8.64;78.96
44751;BME280;30477;48.224;11.470;2022-09-29T00:26:35;94664.50;;;8.71;79.05
44751;BME280;30477;48.224;11.470;2022-09-29T00:29:00;94658.38;;;8.72;78.69
44751;BME280;30477;48.224;11.470;2022-09-29T00:31:28;94660.31;;;8.70;78.76
44751;BME280;30477;48.224;11.470;2022-09-29T00:33:54;94662.25;;;8.68;78.53
44751;BME280;30477;48.224;11.470;2022-09-29T00:36:21;94661.91;;;8.63;78.44
44751;BME280;30477;48.224;11.470;2022-09-29T00:38:48;94652.88;;;8.67;78.81
44751;BME280;30477;48.224;11.470;2022-09-29T00:41:17;94654.66;;;8.66;78.63
44751;BME280;30477;48.224;11.470;2022-09-29T00:46:33;94653.88;;;8.49;78.43
44751;BME280;30477;48.224;11.470;2022-09-29T00:51:38;94640.69;;;8.44;78.53
44751;BME280;30477;48.224;11.470;2022-09-29T00:54:06;94637.47;;;8.50;78.55
44751;BME280;30477;48.224;11.470;2022-09-29T00:56:33;94628.88;;;8.50;78.68
44751;BME280;30477;48.224;11.470;2022-09-29T00:59:02;94634.53;;;8.53;78.65
44751;BME280;30477;48.224;11.470;2022-09-29T01:01:30;94624.22;;;8.53;78.64
44751;BME280;30477;48.224;11.470;2022-09-29T01:04:00;94624.56;;;8.50;78.56
44751;BME280;30477;48.224;11.470;2022-09-29T01:06:40;94618.41;;;8.60;78.83
44751;BME280;30477;48.224;11.470;2022-09-29T01:09:11;94621.94;;;8.67;78.65
44751;BME280;30477;48.224;11.470;2022-09-29T01:11:38;94628.25;;;8.56;78.21
44751;BME280;30477;48.224;11.470;2022-09-29T01:14:06;94632.13;;;8.52;78.32
44751;BME280;30477;48.224;11.470;2022-09-29T01:16:34;94634.38;;;8.47;78.36
44751;BME280;30477;48.224;11.470;2022-09-29T01:19:01;94631.31;;;8.43;78.31
44751;BME280;30477;48.224;11.470;2022-09-29T01:32:51;94620.66;;;8.38;78.60
44751;BME280;30477;48.224;11.470;2022-09-29T01:35:47;94626.13;;;8.35;78.64
44751;BME280;30477;48.224;11.470;2022-09-29T01:39:23;94623.56;;;8.35;78.60
44751;BME280;30477;48.224;11.470;2022-09-29T01:44:03;94620.06;;;8.44;78.79
44751;BME280;30477;48.224;11.470;2022-09-29T01:46:35;94623.25;;;8.38;78.84
44751;BME280;30477;48.224;11.470;2022-09-29T01:49:03;94617.09;;;8.39;79.04
44751;BME280;30477;48.224;11.470;2022-09-29T01:51:34;94622.91;;;8.33;78.97
44751;BME280;30477;48.224;11.470;2022-09-29T01:54:07;94616.94;;;8.32;78.98
44751;BME280;30477;48.224;11.470;2022-09-29T01:56:38;94624.22;;;8.45;79.22
44751;BME280;30477;48.224;11.470;2022-09-29T01:59:14;94623.75;;;8.42;79.09
44751;BME280;30477;48.224;11.470;2022-09-29T02:01:42;94612.28;;;8.36;79.06
44751;BME280;30477;48.224;11.470;2022-09-29T02:04:18;94619.06;;;8.53;79.42
44751;BME280;30477;48.224;11.470;2022-09-29T02:06:50;94620.50;;;8.48;79.07
44751;BME280;30477;48.224;11.470;2022-09-29T02:09:22;94621.16;;;8.42;79.26
44751;BME280;30477;48.224;11.470;2022-09-29T02:11:50;94627.94;;;8.51;79.39
44751;BME280;30477;48.224;11.470;2022-09-29T02:14:26;94618.41;;;8.51;79.30
44751;BME280;30477;48.224;11.470;2022-09-29T02:17:01;94620.50;;;8.48;79.14
44751;BME280;30477;48.224;11.470;2022-09-29T02:19:30;94616.50;;;8.45;79.26
44751;BME280;30477;48.224;11.470;2022-09-29T02:21:58;94622.00;;;8.42;79.39
44751;BME280;30477;48.224;11.470;2022-09-29T02:24:24;94618.44;;;8.43;79.56
44751;BME280;30477;48.224;11.470;2022-09-29T02:26:49;94621.31;;;8.57;79.74
44751;BME280;30477;48.224;11.470;2022-09-29T02:29:16;94621.16;;;8.58;79.26
44751;BME280;30477;48.224;11.470;2022-09-29T02:31:42;94630.03;;;8.56;79.17
44751;BME280;30477;48.224;11.470;2022-09-29T02:34:09;94620.06;;;8.44;78.76
44751;BME280;30477;48.224;11.470;2022-09-29T02:39:29;94618.41;;;8.60;79.04
44751;BME280;30477;48.224;11.470;2022-09-29T02:53:44;94624.56;;;8.50;78.28
44751;BME280;30477;48.224;11.470;2022-09-29T02:56:19;94626.00;;;8.45;78.29
44751;BME280;30477;48.224;11.470;2022-09-29T02:59:00;94615.03;;;8.51;78.67
44751;BME280;30477;48.224;11.470;2022-09-29T03:01:30;94614.72;;;8.54;78.31
44751;BME280;30477;48.224;11.470;2022-09-29T03:03:56;94615.84;;;8.51;78.25
44751;BME280;30477;48.224;11.470;2022-09-29T03:06:21;94615.22;;;8.41;78.16
44751;BME280;30477;48.224;11.470;2022-09-29T03:08:47;94616.00;;;8.42;78.41
44751;BME280;30477;48.224;11.470;2022-09-29T03:11:12;94602.44;;;8.40;78.50
44751;BME280;30477;48.224;11.470;2022-09-29T03:13:37;94611.66;;;8.42;78.43
44751;BME280;30477;48.224;11.470;2022-09-29T03:16:02;94614.91;;;8.44;78.60
44751;BME280;30477;48.224;11.470;2022-09-29T03:18:28;94609.41;;;8.47;78.21
44751;BME280;30477;48.224;11.470;2022-09-29T03:20:54;94611.34;;;8.45;78.40
44751;BME280;30477;48.224;11.470;2022-09-29T03:23:19;94608.25;;;8.50;78.21
44751;BME280;30477;48.224;11.470;2022-09-29T03:25:45;94594.28;;;8.44;77.93
44751;BME280;30477;48.224;11.470;2022-09-29T03:28:10;94610.38;;;8.46;78.26
44751;BME280;30477;48.224;11.470;2022-09-29T03:30:35;94611.03;;;8.48;78.04
44751;BME280;30477;48.224;11.470;2022-09-29T03:33:01;94615.19;;;8.49;78.06
44751;BME280;30477;48.224;11.470;2022-09-29T03:35:26;94611.47;;;8.52;78.45
44751;BME280;30477;48.224;11.470;2022-09-29T03:37:56;94596.00;;;8.52;78.53
44751;BME280;30477;48.224;11.470;2022-09-29T03:40:21;94598.44;;;8.53;78.50
44751;BME280;30477;48.224;11.470;2022-09-29T03:42:47;94594.72;;;8.64;78.45
44751;BME280;30477;48.224;11.470;2022-09-29T03:45:12;94589.53;;;8.72;78.36
44751;BME280;30477;48.224;11.470;2022-09-29T03:47:37;94592.25;;;8.79;78.39
44751;BME280;30477;48.224;11.470;2022-09-29T03:50:03;94596.31;;;8.73;78.03
44751;BME280;30477;48.224;11.470;2022-09-29T03:52:28;94600.34;;;8.68;78.10
44751;BME280;30477;48.224;11.470;2022-09-29T03:54:54;94604.72;;;8.67;78.16
44751;BME280;30477;48.224;11.470;2022-09-29T03:57:19;94606.16;;;8.62;78.07
44751;BME280;30477;48.224;11.470;2022-09-29T03:59:44;94619.22;;;8.60;78.38
44751;BME280;30477;48.224;11.470;2022-09-29T04:02:10;94615.84;;;8.60;78.44
44751;BME280;30477;48.224;11.470;2022-09-29T04:04:35;94603.59;;;8.53;78.54
44751;BME280;30477;48.224;11.470;2022-09-29T04:07:00;94614.06;;;8.52;78.52
44751;BME280;30477;48.224;11.470;2022-09-29T04:09:25;94613.25;;;8.51;78.55
44751;BME280;30477;48.224;11.470;2022-09-29T04:11:51;94609.53;;;8.54;78.68
44751;BME280;30477;48.224;11.470;2022-09-29T04:14:16;94607.94;;;8.61;78.58
44751;BME280;30477;48.224;11.470;2022-09-29T04:16:41;94608.41;;;8.57;78.18
44751;BME280;30477;48.224;11.470;2022-09-29T04:19:07;94611.31;;;8.62;78.55
44751;BME280;30477;48.224;11.470;2022-09-29T04:21:32;94617.91;;;8.64;78.66
44751;BME280;30477;48.224;11.470;2022-09-29T04:23:57;94625.81;;;8.63;78.20
44751;BME280;30477;48.224;11.470;2022-09-29T04:26:23;94621.63;;;8.62;78.21
44751;BME280;30477;48.224;11.470;2022-09-29T04:28:48;94626.78;;;8.62;78.32
44751;BME280;30477;48.224;11.470;2022-09-29T04:31:14;94621.28;;;8.65;78.18
44751;BME280;30477;48.224;11.470;2022-09-29T04:33:39;94609.38;;;8.64;78.24
44751;BME280;30477;48.224;11.470;2022-09-29T04:36:05;94616.47;;;8.78;78.45
44751;BME280;30477;48.224;11.470;2022-09-29T04:38:31;94613.88;;;8.86;78.07
44751;BME280;30477;48.224;11.470;2022-09-29T04:40:57;94615.31;;;8.81;77.55
44751;BME280;30477;48.224;11.470;2022-09-29T04:43:23;94621.94;;;8.75;77.53
44751;BME280;30477;48.224;11.470;2022-09-29T04:45:48;94624.50;;;8.75;77.30
44751;BME280;30477;48.224;11.470;2022-09-29T04:48:13;94632.09;;;8.68;77.42
44751;BME280;30477;48.224;11.470;2022-09-29T04:50:39;94633.88;;;8.68;77.79
44751;BME280;30477;48.224;11.470;2022-09-29T04:53:06;94626.31;;;8.58;77.85
44751;BME280;30477;48.224;11.470;2022-09-29T04:55:31;94621.16;;;8.58;77.78
44751;BME280;30477;48.224;11.470;2022-09-29T04:57:56;94608.09;;;8.51;78.00
44751;BME280;30477;48.224;11.470;2022-09-29T05:00:22;94595.34;;;8.58;78.28
44751;BME280;30477;48.224;11.470;2022-09-29T05:02:47;94598.09;;;8.57;78.18
44751;BME280;30477;48.224;11.470;2022-09-29T05:05:12;94592.63;;;8.60;78.30
44751;BME280;30477;48.224;11.470;2022-09-29T05:07:39;94586.81;;;8.66;78.20
44751;BME280;30477;48.224;11.470;2022-09-29T05:10:06;94587.94;;;8.63;77.92
44751;BME280;30477;48.224;11.470;2022-09-29T05:12:32;94595.50;;;8.73;78.23
44751;BME280;30477;48.224;11.470;2022-09-29T05:14:57;94596.78;;;8.69;77.80
44751;BME280;30477;48.224;11.470;2022-09-29T05:17:23;94598.91;;;8.57;78.05
44751;BME280;30477;48.224;11.470;2022-09-29T05:19:48;94587.94;;;8.71;78.23
44751;BME280;30477;48.224;11.470;2022-09-29T05:22:13;94593.25;;;8.70;77.95
44751;BME280;30477;48.224;11.470;2022-09-29T05:24:39;94592.13;;;8.56;77.65
44751;BME280;30477;48.224;11.470;2022-09-29T05:27:04;94595.56;;;8.48;77.79
44751;BME280;30477;48.224;11.470;2022-09-29T05:29:29;94588.13;;;8.53;78.49
44751;BME280;30477;48.224;11.470;2022-09-29T05:31:55;94569.41;;;8.68;78.65
44751;BME280;30477;48.224;11.470;2022-09-29T05:34:20;94574.22;;;8.71;78.46
44751;BME280;30477;48.224;11.470;2022-09-29T05:36:45;94586.47;;;8.69;78.44
44751;BME280;30477;48.224;11.470;2022-09-29T05:39:11;94590.53;;;8.71;78.20
44751;BME280;30477;48.224;11.470;2022-09-29T05:41:36;94583.88;;;8.77;78.53
44751;BME280;30477;48.224;11.470;2022-09-29T05:44:02;94583.56;;;8.80;78.43
44751;BME280;30477;48.224;11.470;2022-09-29T05:46:27;94580.47;;;8.85;78.24
44751;BME280;30477;48.224;11.470;2022-09-29T05:48:53;94579.69;;;8.76;77.80
44751;BME280;30477;48.224;11.470;2022-09-29T05:51:22;94584.88;;;8.68;78.09
44751;BME280;30477;48.224;11.470;2022-09-29T05:53:48;94587.75;;;8.73;78.45
44751;BME280;30477;48.224;11.470;2022-09-29T05:56:17;94592.25;;;8.79;78.12
44751;BME280;30477;48.224;11.470;2022-09-29T05:58:45;94591.94;;;8.82;78.44
44751;BME280;30477;48.224;11.470;2022-09-29T06:01:16;94586.44;;;8.85;78.09
44751;BME280;30477;48.224;11.470;2022-09-29T06:03:42;94588.50;;;8.90;78.13
44751;BME280;30477;48.224;11.470;2022-09-29T06:06:12;94576.75;;;8.87;77.86
44751;BME280;30477;48.224;11.470;2022-09-29T06:08:38;94582.06;;;8.86;77.88
44751;BME280;30477;48.224;11.470;2022-09-29T06:11:09;94580.97;;;8.88;77.98
44751;BME280;30477;48.224;11.470;2022-09-29T06:13:39;94581.25;;;8.93;78.10
44751;BME280;30477;48.224;11.470;2022-09-29T06:16:05;94573.81;;;8.99;77.85
44751;BME280;30477;48.224;11.470;2022-09-29T06:18:30;94578.50;;;8.95;77.59
44751;BME280;30477;48.224;11.470;2022-09-29T06:21:06;94584.13;;;8.99;77.76
44751;BME280;30477;48.224;11.470;2022-09-29T06:23:33;94581.22;;;9.02;77.71
44751;BME280;30477;48.224;11.470;2022-09-29T06:26:00;94578.31;;;9.05;78.05
44751;BME280;30477;48.224;11.470;2022-09-29T06:28:26;94577.97;;;9.08;77.99
44751;BME280;30477;48.224;11.470;2022-09-29T06:30:52;94576.38;;;8.99;77.76
44751;BME280;30477;48.224;11.470;2022-09-29T06:33:22;94576.13;;;8.85;77.90
44751;BME280;30477;48.224;11.470;2022-09-29T06:35:47;94573.53;;;8.85;78.02
44751;BME280;30477;48.224;11.470;2022-09-29T06:38:32;94570.94;;;8.93;78.01
44751;BME280;30477;48.224;11.470;2022-09-29T06:40:57;94581.53;;;8.99;77.96
44751;BME280;30477;48.224;11.470;2022-09-29T06:43:23;94581.72;;;9.05;78.05
44751;BME280;30477;48.224;11.470;2022-09-29T06:45:48;94588.94;;;9.10;77.96
44751;BME280;30477;48.224;11.470;2022-09-29T06:48:14;94594.75;;;9.12;77.82
44751;BME280;30477;48.224;11.470;2022-09-29T06:50:39;94592.47;;;9.09;77.72
44751;BME280;30477;48.224;11.470;2022-09-29T06:53:04;94598.13;;;9.12;78.14
44751;BME280;30477;48.224;11.470;2022-09-29T06:55:30;94597.97;;;9.14;77.50
44751;BME280;30477;48.224;11.470;2022-09-29T06:57:56;94597.31;;;9.12;77.67
44751;BME280;30477;48.224;11.470;2022-09-29T07:00:21;94610.22;;;9.20;77.80
44751;BME280;30477;48.224;11.470;2022-09-29T07:02:46;94611.34;;;9.18;77.40
44751;BME280;30477;48.224;11.470;2022-09-29T07:05:12;94604.91;;;9.13;77.62
44751;BME280;30477;48.224;11.470;2022-09-29T07:07:37;94607.16;;;9.08;77.54
44751;BME280;30477;48.224;11.470;2022-09-29T07:10:02;94604.09;;;9.13;77.72
44751;BME280;30477;48.224;11.470;2022-09-29T07:12:28;94604.44;;;9.10;77.70
44751;BME280;30477;48.224;11.470;2022-09-29T07:14:54;94613.97;;;9.09;78.03
44751;BME280;30477;48.224;11.470;2022-09-29T07:17:20;94600.03;;;9.19;77.87
44751;BME280;30477;48.224;11.470;2022-09-29T07:19:45;94603.41;;;9.19;77.69
44751;BME280;30477;48.224;11.470;2022-09-29T07:22:11;94608.28;;;9.14;78.03
44751;BME280;30477;48.224;11.470;2022-09-29T07:24:36;94611.19;;;9.11;77.90
44751;BME280;30477;48.224;11.470;2022-09-29T07:27:01;94612.31;;;9.17;78.31
44751;BME280;30477;48.224;11.470;2022-09-29T07:29:27;94611.03;;;9.12;78.02
44751;BME280;30477;48.224;11.470;2022-09-29T07:31:56;94614.41;;;9.13;78.02
44751;BME280;30477;48.224;11.470;2022-09-29T07:34:22;94616.69;;;9.08;78.07
44751;BME280;30477;48.224;11.470;2022-09-29T07:36:47;94619.28;;;9.08;78.27
44751;BME280;30477;48.224;11.470;2022-09-29T07:39:13;94620.56;;;9.12;78.12
44751;BME280;30477;48.224;11.470;2022-09-29T07:41:38;94621.69;;;9.18;78.04
44751;BME280;30477;48.224;11.470;2022-09-29T07:44:03;94615.66;;;9.25;77.81
44751;BME280;30477;48.224;11.470;2022-09-29T07:46:29;94618.91;;;9.19;77.67
44751;BME280;30477;48.224;11.470;2022-09-29T07:48:54;94613.06;;;9.25;77.92
44751;BME280;30477;48.224;11.470;2022-09-29T07:51:19;94622.75;;;9.31;77.55
44751;BME280;30477;48.224;11.470;2022-09-29T07:53:45;94619.53;;;9.29;77.73
44751;BME280;30477;48.224;11.470;2022-09-29T07:56:16;94618.53;;;9.39;77.57
44751;BME280;30477;48.224;11.470;2022-09-29T07:58:43;94616.72;;;9.47;77.59
44751;BME280;30477;48.224;11.470;2022-09-29T08:01:10;94629.44;;;9.49;77.35
44751;BME280;30477;48.224;11.470;2022-09-29T08:03:38;94622.47;;;9.58;77.23
44751;BME280;30477;48.224;11.470;2022-09-29T08:06:05;94635.50;;;9.64;76.64
44751;BME280;30477;48.224;11.470;2022-09-29T08:08:30;94631.94;;;9.65;76.59
44751;BME280;30477;48.224;11.470;2022-09-29T08:11:06;94638.41;;;9.61;76.61
44751;BME280;30477;48.224;11.470;2022-09-29T08:13:32;94630.03;;;9.59;76.25
44751;BME280;30477;48.224;11.470;2022-09-29T08:15:59;94626.94;;;9.64;76.20
44751;BME280;30477;48.224;11.470;2022-09-29T08:18:26;94630.63;;;9.69;75.55
44751;BME280;30477;48.224;11.470;2022-09-29T08:20:52;94636.03;;;9.60;75.10
44751;BME280;30477;48.224;11.470;2022-09-29T08:23:18;94638.91;;;9.65;74.95
44751;BME280;30477;48.224;11.470;2022-09-29T08:25:44;94641.91;;;9.77;74.68
44751;BME280;30477;48.224;11.470;2022-09-29T08:28:10;94650.47;;;9.77;74.70
44751;BME280;30477;48.224;11.470;2022-09-29T08:30:36;94648.69;;;9.78;74.57
44751;BME280;30477;48.224;11.470;2022-09-29T08:33:02;94643.19;;;9.81;74.58
44751;BME280;30477;48.224;11.470;2022-09-29T08:35:28;94643.19;;;9.81;74.64
44751;BME280;30477;48.224;11.470;2022-09-29T08:37:54;94638.34;;;9.78;74.40
44751;BME280;30477;48.224;11.470;2022-09-29T08:40:23;94647.66;;;9.87;75.11
44751;BME280;30477;48.224;11.470;2022-09-29T08:43:09;94642.03;;;9.83;74.63
44751;BME280;30477;48.224;11.470;2022-09-29T08:45:46;94651.31;;;9.69;74.43
44751;BME280;30477;48.224;11.470;2022-09-29T08:48:20;94640.34;;;9.67;74.37
44751;BME280;30477;48.224;11.470;2022-09-29T08:50:58;94646.06;;;9.86;74.17
44751;BME280;30477;48.224;11.470;2022-09-29T08:53:28;94649.91;;;9.90;74.07
44751;BME280;30477;48.224;11.470;2022-09-29T08:55:59;94649.59;;;9.85;74.31
44751;BME280;30477;48.224;11.470;2022-09-29T08:58:26;94654.44;;;9.88;74.41
44751;BME280;30477;48.224;11.470;2022-09-29T09:15:53;94651.91;;;9.80;74.19
44751;BME280;30477;48.224;11.470;2022-09-29T09:24:15;94653.38;;;9.74;73.68
44751;BME280;30477;48.224;11.470;2022-09-29T09:26:42;94657.25;;;9.70;73.60
44751;BME280;30477;48.224;11.470;2022-09-29T09:29:24;94662.31;;;9.63;73.77
44751;BME280;30477;48.224;11.470;2022-09-29T09:32:07;94669.41;;;9.61;73.95
44751;BME280;30477;48.224;11.470;2022-09-29T09:34:41;94669.78;;;9.58;74.19
44751;BME280;30477;48.224;11.470;2022-09-29T09:37:31;94676.22;;;9.62;74.02
44751;BME280;30477;48.224;11.470;2022-09-29T09:43:12;94662.94;;;9.65;74.17
44751;BME280;30477;48.224;11.470;2022-09-29T09:45:47;94668.09;;;9.65;74.43
44751;BME280;30477;48.224;11.470;2022-09-29T09:48:28;94671.50;;;9.66;74.74
44751;BME280;30477;48.224;11.470;2022-09-29T09:50:54;94673.25;;;9.73;74.82
44751;BME280;30477;48.224;11.470;2022-09-29T09:53:30;94677.81;;;9.63;74.20
44751;BME280;30477;48.224;11.470;2022-09-29T10:02:16;94689.13;;;9.62;73.87
44751;BME280;30477;48.224;11.470;2022-09-29T10:04:43;94686.19;;;9.65;73.74
44751;BME280;30477;48.224;11.470;2022-09-29T10:07:09;94680.72;;;9.68;73.79
44751;BME280;30477;48.224;11.470;2022-09-29T10:09:34;94682.00;;;9.64;73.98
44751;BME280;30477;48.224;11.470;2022-09-29T10:12:00;94688.28;;;9.70;74.29
44751;BME280;30477;48.224;11.470;2022-09-29T10:14:27;94686.31;;;9.72;74.05
44751;BME280;30477;48.224;11.470;2022-09-29T10:17:01;94686.66;;;9.69;74.23
44751;BME280;30477;48.224;11.470;2022-09-29T10:22:14;94690.03;;;9.78;74.59
44751;BME280;30477;48.224;11.470;2022-09-29T10:24:39;94682.59;;;9.83;74.45
44751;BME280;30477;48.224;11.470;2022-09-29T10:27:05;94687.44;;;9.78;74.72
44751;BME280;30477;48.224;11.470;2022-09-29T10:29:43;94687.81;;;9.66;74.66
44751;BME280;30477;48.224;11.470;2022-09-29T10:32:16;94682.78;;;9.73;74.99
44751;BME280;30477;48.224;11.470;2022-09-29T10:34:48;94689.34;;;9.84;75.09
44751;BME280;30477;48.224;11.470;2022-09-29T10:37:23;94682.75;;;9.81;74.99
44751;BME280;30477;48.224;11.470;2022-09-29T10:40:13;94689.00;;;9.87;75.11
44751;BME280;30477;48.224;11.470;2022-09-29T10:42:41;94685.06;;;9.99;75.53
44751;BME280;30477;48.224;11.470;2022-09-29T10:45:27;94699.88;;;10.05;75.23
44751;BME280;30477;48.224;11.470;2022-09-29T10:50:23;94703.31;;;10.06;75.63
44751;BME280;30477;48.224;11.470;2022-09-29T10:52:54;94706.84;;;10.05;75.57
44751;BME280;30477;48.224;11.470;2022-09-29T10:55:22;94699.72;;;10.07;75.47
44751;BME280;30477;48.224;11.470;2022-09-29T10:57:49;94703.75;;;10.09;75.59
44751;BME280;30477;48.224;11.470;2022-09-29T11:00:32;94706.03;;;10.04;75.44
44751;BME280;30477;48.224;11.470;2022-09-29T11:03:06;94699.56;;;10.08;75.75
44751;BME280;30477;48.224;11.470;2022-09-29T11:05:32;94703.06;;;10.15;75.52
44751;BME280;30477;48.224;11.470;2022-09-29T11:07:59;94701.13;;;10.18;75.65
44751;BME280;30477;48.224;11.470;2022-09-29T11:10:31;94709.22;;;10.14;75.75
44751;BME280;30477;48.224;11.470;2022-09-29T11:12:58;94709.50;;;10.20;75.73
44751;BME280;30477;48.224;11.470;2022-09-29T11:15:37;94709.19;;;10.23;75.75
44751;BME280;30477;48.224;11.470;2022-09-29T11:18:18;94710.78;;;10.24;76.00
44751;BME280;30477;48.224;11.470;2022-09-29T11:20:49;94715.00;;;10.25;75.72
44751;BME280;30477;48.224;11.470;2022-09-29T11:23:36;94710.91;;;10.30;75.97
44751;BME280;30477;48.224;11.470;2022-09-29T11:26:07;94710.44;;;10.27;75.82
44751;BME280;30477;48.224;11.470;2022-09-29T11:29:03;94712.94;;;10.12;75.88
44751;BME280;30477;48.224;11.470;2022-09-29T11:32:03;94715.72;;;10.10;76.07
44751;BME280;30477;48.224;11.470;2022-09-29T11:40:18;94722.91;;;10.31;76.01
44751;BME280;30477;48.224;11.470;2022-09-29T11:45:49;94728.34;;;10.28;75.50
44751;BME280;30477;48.224;11.470;2022-09-29T11:48:39;94726.16;;;10.17;75.63
44751;BME280;30477;48.224;11.470;2022-09-29T11:51:22;94713.72;;;10.21;75.41
44751;BME280;30477;48.224;11.470;2022-09-29T12:02:27;94724.16;;;10.35;75.83
44751;BME280;30477;48.224;11.470;2022-09-29T12:05:15;94718.50;;;10.32;75.47
44751;BME280;30477;48.224;11.470;2022-09-29T12:08:04;94713.63;;;10.29;75.47
44751;BME280;30477;48.224;11.470;2022-09-29T12:15:38;94716.00;;;10.47;75.31
44751;BME280;30477;48.224;11.470;2022-09-29T12:18:14;94720.94;;;10.56;75.35
44751;BME280;30477;48.224;11.470;2022-09-29T12:20:43;94713.50;;;10.53;75.02
44751;BME280;30477;48.224;11.470;2022-09-29T12:23:11;94717.84;;;10.61;75.04
44751;BME280;30477;48.224;11.470;2022-09-29T12:25:51;94714.63;;;10.59;74.65
44751;BME280;30477;48.224;11.470;2022-09-29T12:28:21;94714.78;;;10.57;74.64
44751;BME280;30477;48.224;11.470;2022-09-29T12:30:53;94717.38;;;10.57;74.37
44751;BME280;30477;48.224;11.470;2022-09-29T12:33:28;94718.63;;;10.62;74.59
44751;BME280;30477;48.224;11.470;2022-09-29T12:39:44;94707.38;;;10.54;74.24
44751;BME280;30477;48.224;11.470;2022-09-29T12:50:17;94702.88;;;10.71;73.96
44751;BME280;30477;48.224;11.470;2022-09-29T12:52:51;94709.53;;;10.66;73.71
44751;BME280;30477;48.224;11.470;2022-09-29T12:56:15;94711.50;;;10.64;73.67
44751;BME280;30477;48.224;11.470;2022-09-29T12:58:32;94709.28;;;10.61;73.73
44751;BME280;30477;48.224;11.470;2022-09-29T13:01:19;94712.28;;;10.64;73.88
44751;BME280;30477;48.224;11.470;2022-09-29T13:10:01;94714.72;;;10.66;73.41
44751;BME280;30477;48.224;11.470;2022-09-29T13:12:58;94717.78;;;10.69;73.16
44751;BME280;30477;48.224;11.470;2022-09-29T13:21:23;94720.53;;;10.68;73.01
44751;BME280;30477;48.224;11.470;2022-09-29T13:24:13;94718.31;;;10.65;72.63
44751;BME280;30477;48.224;11.470;2022-09-29T13:27:22;94724.16;;;10.59;73.05
44751;BME280;30477;48.224;11.470;2022-09-29T13:30:05;94720.66;;;10.51;72.75
44751;BME280;30477;48.224;11.470;2022-09-29T13:32:49;94721.44;;;10.52;72.87
44751;BME280;30477;48.224;11.470;2022-09-29T13:35:20;94729.34;;;10.59;73.08
44751;BME280;30477;48.224;11.470;2022-09-29T13:38:00;94730.25;;;10.66;72.78
44751;BME280;30477;48.224;11.470;2022-09-29T13:40:28;94728.13;;;10.69;72.76
44751;BME280;30477;48.224;11.470;2022-09-29T13:42:56;94722.84;;;10.63;72.48
44751;BME280;30477;48.224;11.470;2022-09-29T13:48:01;94732.41;;;10.54;72.57
44751;BME280;30477;48.224;11.470;2022-09-29T13:50:47;94733.25;;;10.54;72.11
44751;BME280;30477;48.224;11.470;2022-09-29T13:58:31;94739.00;;;10.65;72.61
44751;BME280;30477;48.224;11.470;2022-09-29T14:00:59;94742.09;;;10.60;72.35
44751;BME280;30477;48.224;11.470;2022-09-29T14:03:27;94739.31;;;10.62;72.43
44751;BME280;30477;48.224;11.470;2022-09-29T14:06:21;94739.38;;;10.53;72.26
44751;BME280;30477;48.224;11.470;2022-09-29T14:11:37;94745.59;;;10.44;72.49
44751;BME280;30477;48.224;11.470;2022-09-29T14:14:16;94751.94;;;10.42;72.40
44751;BME280;30477;48.224;11.470;2022-09-29T14:16:53;94751.41;;;10.46;72.31
44751;BME280;30477;48.224;11.470;2022-09-29T14:19:33;94754.38;;;10.35;72.49
44751;BME280;30477;48.224;11.470;2022-09-29T14:22:02;94762.97;;;10.35;72.65
44751;BME280;30477;48.224;11.470;2022-09-29T14:27:20;94762.97;;;10.27;72.74
44751;BME280;30477;48.224;11.470;2022-09-29T14:29:51;94767.81;;;10.30;73.15
44751;BME280;30477;48.224;11.470;2022-09-29T14:32:22;94772.84;;;10.24;73.21
44751;BME280;30477;48.224;11.470;2022-09-29T14:34:51;94776.22;;;10.32;73.62
44751;BME280;30477;48.224;11.470;2022-09-29T14:37:20;94778.97;;;10.31;73.50
44751;BME280;30477;48.224;11.470;2022-09-29T14:39:46;94779.63;;;10.25;73.65
44751;BME280;30477;48.224;11.470;2022-09-29T14:42:32;94778.00;;;10.32;73.61
44751;BME280;30477;48.224;11.470;2022-09-29T14:44:59;94788.00;;;10.35;73.82
44751;BME280;30477;48.224;11.470;2022-09-29T14:51:04;94787.72;;;10.30;73.52
44751;BME280;30477;48.224;11.470;2022-09-29T14:54:05;94801.28;;;10.32;73.60
44751;BME280;30477;48.224;11.470;2022-09-29T14:59:10;94800.84;;;10.12;73.71
44751;BME280;30477;48.224;11.470;2022-09-29T15:02:01;94804.88;;;10.14;73.85
44751;BME280;30477;48.224;11.470;2022-09-29T15:04:38;94805.00;;;10.21;74.01
44751;BME280;30477;48.224;11.470;2022-09-29T15:07:06;94802.72;;;10.26;74.18
44751;BME280;30477;48.224;11.470;2022-09-29T15:09:35;94811.47;;;10.25;74.11
44751;BME280;30477;48.224;11.470;2022-09-29T15:12:01;94815.34;;;10.21;74.33
44751;BME280;30477;48.224;11.470;2022-09-29T15:14:30;94820.41;;;10.14;74.75
44751;BME280;30477;48.224;11.470;2022-09-29T15:17:17;94824.63;;;10.07;74.78
44751;BME280;30477;48.224;11.470;2022-09-29T15:19:50;94823.69;;;10.00;74.98
44751;BME280;30477;48.224;11.470;2022-09-29T15:22:31;94821.09;;;10.00;75.19
44751;BME280;30477;48.224;11.470;2022-09-29T15:25:35;94821.59;;;9.95;75.23
44751;BME280;30477;48.224;11.470;2022-09-29T15:28:19;94820.13;;;9.93;75.06
44751;BME280;30477;48.224;11.470;2022-09-29T15:30:48;94816.63;;;9.86;75.21